createdAt,value
2022-09-15T00:00:57.221Z,94852.06
2022-09-15T00:03:24.403Z,94855.56
2022-09-15T00:05:54.269Z,94846.53
2022-09-15T00:08:22.009Z,94850.03
2022-09-15T00:10:53.550Z,94847.06
2022-09-15T00:13:21.505Z,94853.09
2022-09-15T00:15:48.572Z,94852.09
2022-09-15T00:18:15.178Z,94838.84
2022-09-15T00:20:43.485Z,94857.34
2022-09-15T00:23:12.093Z,94849.34
2022-09-15T00:25:45.845Z,94851.88
2022-09-15T00:28:13.998Z,94846.09
2022-09-15T00:31:04.011Z,94832.34
2022-09-15T00:33:30.589Z,94842.13
2022-09-15T00:35:57.225Z,94833.88
2022-09-15T00:38:23.800Z,94846.38
2022-09-15T00:40:55.913Z,94846.91
2022-09-15T00:43:41.564Z,94849.69
2022-09-15T00:46:08.979Z,94841.19
2022-09-15T00:48:38.691Z,94847.44
2022-09-15T00:51:08.625Z,94831.66
2022-09-15T00:53:35.785Z,94844.94
2022-09-15T00:56:04.790Z,94833.91
2022-09-15T00:58:37.844Z,94847.19
2022-09-15T01:01:08.260Z,94840.44
2022-09-15T01:03:36.784Z,94836.19
2022-09-15T01:06:15.811Z,94844.94
2022-09-15T01:08:59.943Z,94840.44
2022-09-15T01:11:26.752Z,94836.94
2022-09-15T01:13:53.374Z,94836.19
2022-09-15T01:17:12.345Z,94836.22
2022-09-15T01:19:47.714Z,94838.94
2022-09-15T01:22:27.094Z,94838.94
2022-09-15T01:25:07.561Z,94834.97
2022-09-15T01:28:02.797Z,94833.44
2022-09-15T01:30:42.322Z,94835.44
2022-09-15T01:33:15.230Z,94837.91
2022-09-15T01:36:11.468Z,94825.38
2022-09-15T01:38:44.092Z,94834.88
2022-09-15T01:41:25.585Z,94839.88
2022-09-15T01:44:12.415Z,94832.66
2022-09-15T01:46:52.519Z,94832.13
2022-09-15T01:49:25.449Z,94831.91
2022-09-15T01:51:54.072Z,94828.19
2022-09-15T01:54:25.586Z,94820.69
2022-09-15T01:56:52.544Z,94828.44
2022-09-15T01:59:19.291Z,94819.47
2022-09-15T02:01:51.879Z,94818.44
2022-09-15T02:04:30.888Z,94825.47
2022-09-15T02:07:11.608Z,94819.69
2022-09-15T02:09:54.669Z,94822.97
2022-09-15T02:12:34.936Z,94816.22
2022-09-15T02:15:10.886Z,94819.47
2022-09-15T02:17:54.197Z,94828.72
2022-09-15T02:20:25.668Z,94830.47
2022-09-15T02:22:57.282Z,94824.19
2022-09-15T02:25:36.137Z,94820.69
2022-09-15T02:28:09.353Z,94824.94
2022-09-15T02:30:41.966Z,94806.22
2022-09-15T02:33:19.993Z,94819.19
2022-09-15T02:35:47.616Z,94814.19
2022-09-15T02:38:15.158Z,94802.44
2022-09-15T02:40:44.662Z,94818.69
2022-09-15T02:43:15.962Z,94815.94
2022-09-15T02:45:42.957Z,94833.47
2022-09-15T02:48:09.897Z,94822.47
2022-09-15T02:50:39.171Z,94821.19
2022-09-15T02:53:06.172Z,94810.44
2022-09-15T02:55:32.964Z,94805.94
2022-09-15T02:58:00.185Z,94809.41
2022-09-15T03:00:28.483Z,94806.19
2022-09-15T03:02:56.187Z,94803.44
2022-09-15T03:05:25.631Z,94818.44
2022-09-15T03:07:53.175Z,94823.44
2022-09-15T03:10:20.053Z,94829.22
2022-09-15T03:12:49.580Z,94830.94
2022-09-15T03:15:19.496Z,94834.69
2022-09-15T03:17:47.417Z,94834.94
2022-09-15T03:20:17.075Z,94845.94
2022-09-15T03:22:44.010Z,94848.38
2022-09-15T03:25:11.256Z,94845.38
2022-09-15T03:27:38.403Z,94849.38
2022-09-15T03:30:06.795Z,94857.88
2022-09-15T03:32:33.419Z,94844.63
2022-09-15T03:34:59.989Z,94838.88
2022-09-15T03:37:27.078Z,94844.88
2022-09-15T03:39:53.782Z,94847.88
2022-09-15T03:42:21.505Z,94836.13
2022-09-15T03:44:48.063Z,94837.84
2022-09-15T03:47:14.620Z,94835.88
2022-09-15T03:49:41.303Z,94841.09
2022-09-15T03:52:07.878Z,94838.84
2022-09-15T03:54:35.444Z,94841.59
2022-09-15T03:57:02.254Z,94830.38
2022-09-15T03:59:29.034Z,94835.38
2022-09-15T04:01:55.658Z,94833.38
2022-09-15T04:04:22.257Z,94832.13
2022-09-15T04:06:48.880Z,94839.09
2022-09-15T04:09:15.618Z,94843.84
2022-09-15T04:11:42.741Z,94835.38
2022-09-15T04:14:09.341Z,94823.13
2022-09-15T04:16:36.158Z,94844.34
2022-09-15T04:19:02.827Z,94835.38
2022-09-15T04:21:31.721Z,94836.63
2022-09-15T04:23:58.683Z,94836.88
2022-09-15T04:26:30.010Z,94834.66
2022-09-15T04:28:59.558Z,94844.41
2022-09-15T04:31:29.934Z,94851.94
2022-09-15T04:33:57.247Z,94846.44
2022-09-15T04:36:25.853Z,94824.19
2022-09-15T04:38:52.800Z,94836.69
2022-09-15T04:41:20.954Z,94842.44
2022-09-15T04:43:48.177Z,94837.69
2022-09-15T04:46:15.256Z,94827.16
2022-09-15T04:48:41.984Z,94841.91
2022-09-15T04:51:13.978Z,94848.63
2022-09-15T04:53:40.904Z,94857.38
2022-09-15T04:56:12.495Z,94848.84
2022-09-15T04:58:41.691Z,94850.56
2022-09-15T05:01:14.032Z,94841.78
2022-09-15T05:03:41.455Z,94847.25
2022-09-15T05:06:10.788Z,94843.66
2022-09-15T05:08:38.101Z,94837.19
2022-09-15T05:11:07.412Z,94838.50
2022-09-15T05:13:34.968Z,94837.25
2022-09-15T05:16:12.656Z,94836.69
2022-09-15T05:18:41.132Z,94823.25
2022-09-15T05:21:10.062Z,94833.91
2022-09-15T05:23:37.809Z,94821.72
2022-09-15T05:26:07.592Z,94823.91
2022-09-15T05:28:36.080Z,94823.19
2022-09-15T05:31:11.812Z,94815.25
2022-09-15T05:33:38.872Z,94821.53
2022-09-15T05:36:07.181Z,94823.50
2022-09-15T05:38:33.830Z,94823.53
2022-09-15T05:41:08.322Z,94812.31
2022-09-15T05:43:36.837Z,94808.22
2022-09-15T05:46:03.989Z,94805.44
2022-09-15T05:48:30.994Z,94796.06
2022-09-15T05:50:58.439Z,94796.44
2022-09-15T05:53:26.249Z,94788.00
2022-09-15T05:55:57.339Z,94797.03
2022-09-15T05:58:25.294Z,94798.16
2022-09-15T06:00:53.434Z,94800.09
2022-09-15T06:03:21.065Z,94807.88
2022-09-15T06:05:48.249Z,94805.16
2022-09-15T06:08:15.127Z,94803.66
2022-09-15T06:10:41.731Z,94815.16
2022-09-15T06:13:08.348Z,94807.50
2022-09-15T06:15:34.959Z,94809.75
2022-09-15T06:18:01.590Z,94804.19
2022-09-15T06:20:28.223Z,94800.88
2022-09-15T06:22:56.146Z,94796.56
2022-09-15T06:25:22.744Z,94803.66
2022-09-15T06:27:50.666Z,94795.72
2022-09-15T06:30:17.979Z,94795.75
2022-09-15T06:32:48.053Z,94790.84
2022-09-15T06:35:15.499Z,94791.44
2022-09-15T06:37:42.084Z,94797.00
2022-09-15T06:40:09.197Z,94800.16
2022-09-15T06:42:35.820Z,94802.00
2022-09-15T06:45:02.420Z,94799.25
2022-09-15T06:47:33.943Z,94805.00
2022-09-15T06:50:01.141Z,94793.91
2022-09-15T06:52:28.076Z,94808.28
2022-09-15T06:54:54.705Z,94811.53
2022-09-15T06:57:21.362Z,94818.97
2022-09-15T06:59:47.921Z,94820.72
2022-09-15T07:02:14.615Z,94820.38
2022-09-15T07:04:41.335Z,94825.38
2022-09-15T07:07:08.093Z,94827.09
2022-09-15T07:09:34.685Z,94832.88
2022-09-15T07:12:01.593Z,94842.84
2022-09-15T07:14:28.216Z,94844.97
2022-09-15T07:16:54.801Z,94847.84
2022-09-15T07:19:21.712Z,94848.38
2022-09-15T07:21:48.335Z,94857.53
2022-09-15T07:24:15.000Z,94858.84
2022-09-15T07:26:41.922Z,94869.91
2022-09-15T07:29:09.793Z,94859.50
2022-09-15T07:31:38.532Z,94862.06
2022-09-15T07:34:06.266Z,94862.44
2022-09-15T07:36:33.117Z,94864.84
2022-09-15T07:38:59.693Z,94870.91
2022-09-15T07:41:30.925Z,94850.34
2022-09-15T07:43:59.098Z,94846.38
2022-09-15T07:46:27.183Z,94841.75
2022-09-15T07:48:57.968Z,94844.06
2022-09-15T07:51:26.496Z,94840.59
2022-09-15T07:53:53.756Z,94838.41
2022-09-15T07:56:21.677Z,94853.66
2022-09-15T07:58:49.128Z,94851.75
2022-09-15T08:01:17.686Z,94845.19
2022-09-15T08:03:48.516Z,94842.34
2022-09-15T08:06:17.968Z,94845.63
2022-09-15T08:08:44.873Z,94843.72
2022-09-15T08:11:18.507Z,94841.00
2022-09-15T08:13:50.161Z,94830.47
2022-09-15T08:16:19.774Z,94836.00
2022-09-15T08:18:46.476Z,94824.56
2022-09-15T08:21:16.147Z,94826.94
2022-09-15T08:23:42.925Z,94831.25
2022-09-15T08:26:14.115Z,94822.44
2022-09-15T08:28:41.027Z,94791.28
2022-09-15T08:31:09.404Z,94818.81
2022-09-15T08:33:36.077Z,94809.00
2022-09-15T08:36:07.383Z,94808.91
2022-09-15T08:38:34.452Z,94813.25
2022-09-15T08:41:06.148Z,94797.56
2022-09-15T08:43:45.843Z,94797.81
2022-09-15T08:46:18.540Z,94803.91
2022-09-15T08:48:51.142Z,94798.28
2022-09-15T08:51:27.549Z,94797.06
2022-09-15T08:54:03.234Z,94790.94
2022-09-15T08:56:30.756Z,94786.59
2022-09-15T08:58:57.320Z,94782.31
2022-09-15T09:01:42.385Z,94792.25
2022-09-15T09:04:33.921Z,94783.47
2022-09-15T09:07:30.196Z,94772.56
2022-09-15T09:10:19.361Z,94770.28
2022-09-15T09:13:16.994Z,94782.06
2022-09-15T09:16:10.932Z,94772.13
2022-09-15T09:19:15.272Z,94770.41
2022-09-15T09:21:47.481Z,94761.00
2022-09-15T09:24:17.240Z,94755.75
2022-09-15T09:26:49.283Z,94750.25
2022-09-15T09:29:18.907Z,94742.00
2022-09-15T09:31:50.754Z,94747.38
2022-09-15T09:34:30.063Z,94748.97
2022-09-15T09:37:01.731Z,94741.88
2022-09-15T09:39:29.057Z,94740.19
2022-09-15T09:41:56.085Z,94743.06
2022-09-15T09:44:31.756Z,94745.53
2022-09-15T09:46:59.702Z,94744.81
2022-09-15T09:49:40.870Z,94742.75
2022-09-15T09:52:07.426Z,94746.16
2022-09-15T09:54:35.511Z,94746.16
2022-09-15T09:57:14.357Z,94751.38
2022-09-15T09:59:47.809Z,94746.16
2022-09-15T10:02:28.794Z,94737.59
2022-09-15T10:05:17.661Z,94727.94
2022-09-15T10:07:44.332Z,94729.25
2022-09-15T10:10:23.342Z,94706.00
2022-09-15T10:12:55.615Z,94728.13
2022-09-15T10:15:25.160Z,94722.59
2022-09-15T10:17:53.204Z,94718.94
2022-09-15T10:20:25.494Z,94727.00
2022-09-15T10:23:01.270Z,94723.09
2022-09-15T10:25:49.328Z,94716.22
2022-09-15T10:28:23.032Z,94712.66
2022-09-15T10:31:05.989Z,94708.38
2022-09-15T10:33:47.821Z,94714.63
2022-09-15T10:36:29.854Z,94708.66
2022-09-15T10:39:06.002Z,94715.22
2022-09-15T10:41:40.653Z,94714.34
2022-09-15T10:44:27.546Z,94711.66
2022-09-15T10:47:35.360Z,94707.03
2022-09-15T10:50:32.717Z,94695.34
2022-09-15T10:53:02.119Z,94694.31
2022-09-15T10:55:54.668Z,94693.03
2022-09-15T10:58:56.679Z,94686.16
2022-09-15T11:01:32.214Z,94679.94
2022-09-15T11:04:29.560Z,94682.41
2022-09-15T11:07:15.286Z,94681.16
2022-09-15T11:09:53.864Z,94676.72
2022-09-15T11:12:58.504Z,94663.41
2022-09-15T11:15:57.358Z,94669.97
2022-09-15T11:18:49.071Z,94664.13
2022-09-15T11:21:15.631Z,94665.06
2022-09-15T11:23:49.216Z,94663.28
2022-09-15T11:26:31.070Z,94658.69
2022-09-15T11:29:05.317Z,94655.25
2022-09-15T11:31:39.646Z,94658.38
2022-09-15T11:34:22.398Z,94658.03
2022-09-15T11:37:12.382Z,94661.28
2022-09-15T11:39:56.553Z,94644.50
2022-09-15T11:42:41.134Z,94643.63
2022-09-15T11:45:17.725Z,94646.94
2022-09-15T11:47:49.308Z,94646.53
2022-09-15T11:50:24.898Z,94639.22
2022-09-15T11:53:03.881Z,94638.69
2022-09-15T11:55:42.301Z,94633.69
2022-09-15T11:58:27.643Z,94632.78
2022-09-15T12:01:08.862Z,94621.53
2022-09-15T12:03:43.144Z,94629.88
2022-09-15T12:06:20.355Z,94631.72
2022-09-15T12:08:56.917Z,94614.63
2022-09-15T12:11:26.981Z,94604.38
2022-09-15T12:13:55.256Z,94596.38
2022-09-15T12:16:22.678Z,94600.44
2022-09-15T12:19:25.257Z,94590.50
2022-09-15T12:22:01.940Z,94590.38
2022-09-15T12:24:35.481Z,94576.63
2022-09-15T12:27:02.654Z,94578.63
2022-09-15T12:29:41.211Z,94576.69
2022-09-15T12:32:20.032Z,94581.72
2022-09-15T12:35:05.557Z,94577.44
2022-09-15T12:37:47.399Z,94567.41
2022-09-15T12:40:40.036Z,94564.66
2022-09-15T12:43:16.018Z,94567.53
2022-09-15T12:45:53.883Z,94555.59
2022-09-15T12:48:33.498Z,94565.56
2022-09-15T12:51:05.043Z,94562.56
2022-09-15T12:53:46.376Z,94557.91
2022-09-15T12:56:22.677Z,94550.09
2022-09-15T12:58:50.872Z,94555.16
2022-09-15T13:01:23.652Z,94541.94
2022-09-15T13:03:50.328Z,94545.09
2022-09-15T13:06:22.973Z,94534.66
2022-09-15T13:08:49.715Z,94537.81
2022-09-15T13:11:36.840Z,94538.31
2022-09-15T13:14:03.494Z,94544.19
2022-09-15T13:16:41.141Z,94536.50
2022-09-15T13:19:20.668Z,94540.31
2022-09-15T13:22:20.187Z,94538.16
2022-09-15T13:25:07.813Z,94524.34
2022-09-15T13:27:40.619Z,94530.06
2022-09-15T13:30:10.222Z,94526.53
2022-09-15T13:32:52.540Z,94522.66
2022-09-15T13:35:25.115Z,94517.84
2022-09-15T13:38:21.206Z,94520.03
2022-09-15T13:41:11.864Z,94523.66
2022-09-15T13:43:48.409Z,94507.34
2022-09-15T13:46:41.304Z,94515.53
2022-09-15T13:49:44.983Z,94511.41
2022-09-15T13:52:23.488Z,94510.59
2022-09-15T13:55:14.496Z,94513.81
2022-09-15T14:00:34.358Z,94527.03
2022-09-15T14:03:13.248Z,94522.16
2022-09-15T14:05:40.594Z,94518.84
2022-09-15T14:08:18.459Z,94511.88
2022-09-15T14:10:51.041Z,94521.50
2022-09-15T14:13:20.937Z,94516.88
2022-09-15T14:16:03.078Z,94520.13
2022-09-15T14:18:31.357Z,94514.63
2022-09-15T14:21:03.428Z,94513.63
2022-09-15T14:23:31.138Z,94516.94
2022-09-15T14:26:02.747Z,94513.06
2022-09-15T14:28:32.806Z,94514.84
2022-09-15T14:31:01.634Z,94511.66
2022-09-15T14:33:41.020Z,94502.22
2022-09-15T14:36:25.829Z,94513.81
2022-09-15T14:39:13.585Z,94519.72
2022-09-15T14:41:40.242Z,94523.97
2022-09-15T14:47:28.651Z,94517.41
2022-09-15T14:50:11.673Z,94507.47
2022-09-15T14:52:41.614Z,94509.44
2022-09-15T14:55:15.062Z,94509.22
2022-09-15T14:57:48.916Z,94496.22
2022-09-15T15:00:21.243Z,94505.88
2022-09-15T15:02:51.694Z,94501.34
2022-09-15T15:05:26.618Z,94509.28
2022-09-15T15:07:55.400Z,94506.31
2022-09-15T15:10:26.021Z,94507.59
2022-09-15T15:12:56.172Z,94512.13
2022-09-15T15:15:23.178Z,94509.78
2022-09-15T15:17:54.573Z,94509.69
2022-09-15T15:20:25.091Z,94512.25
2022-09-15T15:23:18.753Z,94512.44
2022-09-15T15:25:47.068Z,94515.69
2022-09-15T15:28:37.054Z,94513.97
2022-09-15T15:31:24.596Z,94521.47
2022-09-15T15:33:59.130Z,94509.22
2022-09-15T15:36:28.543Z,94521.31
2022-09-15T15:39:00.375Z,94521.47
2022-09-15T15:41:30.083Z,94510.69
2022-09-15T15:44:23.049Z,94512.16
2022-09-15T15:46:51.026Z,94523.75
2022-09-15T15:49:19.268Z,94510.84
2022-09-15T15:51:45.822Z,94526.69
2022-09-15T15:54:12.784Z,94529.06
2022-09-15T15:56:39.611Z,94541.03
2022-09-15T15:59:06.340Z,94539.13
2022-09-15T16:01:33.577Z,94534.38
2022-09-15T16:04:00.442Z,94533.72
2022-09-15T16:06:27.211Z,94530.56
2022-09-15T16:08:55.598Z,94521.88
2022-09-15T16:11:22.186Z,94522.19
2022-09-15T16:13:48.946Z,94523.41
2022-09-15T16:16:21.056Z,94523.84
2022-09-15T16:18:47.786Z,94518.34
2022-09-15T16:21:30.483Z,94505.06
2022-09-15T16:23:57.096Z,94519.38
2022-09-15T16:26:24.988Z,94500.44
2022-09-15T16:28:52.344Z,94507.94
2022-09-15T16:31:19.061Z,94512.31
2022-09-15T16:33:45.675Z,94515.38
2022-09-15T16:36:14.399Z,94513.09
2022-09-15T16:38:41.419Z,94524.97
2022-09-15T16:41:26.348Z,94525.22
2022-09-15T16:43:53.498Z,94515.19
2022-09-15T16:46:20.545Z,94518.28
2022-09-15T16:48:47.307Z,94518.28
2022-09-15T16:51:25.204Z,94525.34
2022-09-15T16:53:56.229Z,94517.06
2022-09-15T16:56:22.952Z,94526.03
2022-09-15T16:58:49.664Z,94522.59
2022-09-15T17:01:19.449Z,94530.09
2022-09-15T17:03:46.461Z,94522.47
2022-09-15T17:06:14.949Z,94530.53
2022-09-15T17:08:41.867Z,94523.63
2022-09-15T17:11:16.521Z,94528.22
2022-09-15T17:13:44.012Z,94528.06
2022-09-15T17:16:19.445Z,94521.75
2022-09-15T17:18:46.962Z,94508.41
2022-09-15T17:21:16.244Z,94519.19
2022-09-15T17:23:45.662Z,94516.75
2022-09-15T17:26:20.946Z,94517.91
2022-09-15T17:28:47.956Z,94522.75
2022-09-15T17:31:16.045Z,94524.78
2022-09-15T17:33:43.184Z,94534.91
2022-09-15T17:36:10.032Z,94521.50
2022-09-15T17:38:36.727Z,94522.75
2022-09-15T17:41:03.741Z,94528.41
2022-09-15T17:43:32.033Z,94531.66
2022-09-15T17:45:59.382Z,94519.66
2022-09-15T17:48:26.258Z,94516.25
2022-09-15T17:50:53.000Z,94530.63
2022-09-15T17:53:26.743Z,94525.00
2022-09-15T17:55:55.282Z,94537.69
2022-09-15T17:58:23.470Z,94543.84
2022-09-15T18:00:50.901Z,94546.47
2022-09-15T18:03:17.469Z,94543.22
2022-09-15T18:05:44.289Z,94545.41
2022-09-15T18:08:11.151Z,94535.16
2022-09-15T18:10:37.885Z,94531.88
2022-09-15T18:13:05.839Z,94542.63
2022-09-15T18:15:34.964Z,94542.31
2022-09-15T18:18:08.551Z,94548.44
2022-09-15T18:20:36.769Z,94543.59
2022-09-15T18:23:03.436Z,94525.78
2022-09-15T18:25:34.519Z,94523.94
2022-09-15T18:28:02.102Z,94517.97
2022-09-15T18:30:32.394Z,94519.28
2022-09-15T18:32:59.473Z,94510.56
2022-09-15T18:35:26.425Z,94511.72
2022-09-15T18:37:57.905Z,94514.03
2022-09-15T18:40:25.814Z,94520.88
2022-09-15T18:42:52.544Z,94498.94
2022-09-15T18:45:20.128Z,94505.47
2022-09-15T18:47:49.202Z,94502.50
2022-09-15T18:50:17.258Z,94499.81
2022-09-15T18:52:44.321Z,94492.78
2022-09-15T18:55:18.227Z,94507.56
2022-09-15T18:57:45.889Z,94504.28
2022-09-15T19:00:15.777Z,94495.69
2022-09-15T19:02:42.998Z,94498.44
2022-09-15T19:05:15.656Z,94486.88
2022-09-15T19:07:44.187Z,94487.66
2022-09-15T19:10:12.659Z,94481.66
2022-09-15T19:12:40.160Z,94477.44
2022-09-15T19:15:12.182Z,94463.38
2022-09-15T19:17:39.737Z,94460.78
2022-09-15T19:20:08.728Z,94450.41
2022-09-15T19:22:36.738Z,94455.41
2022-09-15T19:25:04.952Z,94451.34
2022-09-15T19:27:31.885Z,94448.72
2022-09-15T19:29:58.607Z,94452.81
2022-09-15T19:32:25.200Z,94453.53
2022-09-15T19:34:51.841Z,94448.69
2022-09-15T19:37:20.947Z,94428.66
2022-09-15T19:39:50.857Z,94431.25
2022-09-15T19:42:21.185Z,94436.81
2022-09-15T19:44:54.539Z,94430.88
2022-09-15T19:47:27.018Z,94431.63
2022-09-15T19:49:55.452Z,94449.22
2022-09-15T19:52:22.849Z,94434.41
2022-09-15T19:54:55.338Z,94432.03
2022-09-15T19:57:24.902Z,94439.13
2022-09-15T19:59:54.891Z,94436.88
2022-09-15T20:02:22.436Z,94426.84
2022-09-15T20:04:51.002Z,94426.28
2022-09-15T20:07:18.028Z,94401.09
2022-09-15T20:09:44.815Z,94412.75
2022-09-15T20:12:11.448Z,94408.53
2022-09-15T20:14:38.075Z,94425.41
2022-09-15T20:17:05.273Z,94429.47
2022-09-15T20:19:32.878Z,94436.13
2022-09-15T20:21:59.546Z,94431.34
2022-09-15T20:24:26.262Z,94432.78
2022-09-15T20:26:53.300Z,94443.16
2022-09-15T20:29:20.586Z,94440.91
2022-09-15T20:31:48.085Z,94436.84
2022-09-15T20:34:14.900Z,94439.47
2022-09-15T20:36:41.603Z,94441.09
2022-09-15T20:39:13.315Z,94444.22
2022-09-15T20:41:41.399Z,94448.16
2022-09-15T20:44:11.863Z,94452.81
2022-09-15T20:46:38.479Z,94452.78
2022-09-15T20:49:05.143Z,94475.22
2022-09-15T20:51:33.634Z,94459.13
2022-09-15T20:54:03.462Z,94478.41
2022-09-15T20:56:32.745Z,94459.84
2022-09-15T20:59:00.570Z,94458.72
2022-09-15T21:01:36.898Z,94470.19
2022-09-15T21:04:04.326Z,94460.34
2022-09-15T21:06:31.587Z,94465.56
2022-09-15T21:08:58.655Z,94486.16
2022-09-15T21:11:27.507Z,94470.97
2022-09-15T21:13:55.301Z,94465.75
2022-09-15T21:16:24.933Z,94479.66
2022-09-15T21:18:52.210Z,94469.84
2022-09-15T21:21:21.982Z,94459.63
2022-09-15T21:23:53.876Z,94464.63
2022-09-15T21:26:25.750Z,94473.03
2022-09-15T21:28:52.927Z,94462.09
2022-09-15T21:31:22.417Z,94472.66
2022-09-15T21:33:49.487Z,94454.69
2022-09-15T21:36:24.519Z,94464.88
2022-09-15T21:38:53.058Z,94481.88
2022-09-15T21:41:22.438Z,94483.19
2022-09-15T21:43:54.685Z,94482.44
2022-09-15T21:46:24.079Z,94484.09
2022-09-15T21:48:50.673Z,94490.59
2022-09-15T21:51:24.000Z,94492.28
2022-09-15T21:53:55.658Z,94487.63
2022-09-15T21:56:23.065Z,94497.06
2022-09-15T21:58:50.001Z,94496.84
2022-09-15T22:01:19.599Z,94499.84
2022-09-15T22:03:56.218Z,94498.53
2022-09-15T22:06:31.515Z,94479.47
2022-09-15T22:09:04.040Z,94494.56
2022-09-15T22:11:31.061Z,94486.38
2022-09-15T22:13:58.062Z,94487.84
2022-09-15T22:16:26.170Z,94491.19
2022-09-15T22:18:53.215Z,94491.75
2022-09-15T22:21:25.685Z,94489.88
2022-09-15T22:23:54.962Z,94486.19
2022-09-15T22:26:34.538Z,94489.16
2022-09-15T22:29:01.863Z,94487.09
2022-09-15T22:31:29.350Z,94491.75
2022-09-15T22:33:56.628Z,94483.03
2022-09-15T22:36:29.260Z,94474.69
2022-09-15T22:39:04.220Z,94483.41
2022-09-15T22:41:34.507Z,94488.03
2022-09-15T22:44:01.397Z,94474.50
2022-09-15T22:46:28.128Z,94473.16
2022-09-15T22:48:54.876Z,94469.44
2022-09-15T22:51:21.501Z,94464.22
2022-09-15T22:53:48.107Z,94468.63
2022-09-15T22:56:20.463Z,94479.44
2022-09-15T22:58:48.806Z,94464.06
2022-09-15T23:01:20.401Z,94468.75
2022-09-15T23:03:54.707Z,94469.84
2022-09-15T23:06:22.254Z,94471.38
2022-09-15T23:08:56.903Z,94474.31
2022-09-15T23:11:26.664Z,94471.00
2022-09-15T23:13:53.805Z,94467.84
2022-09-15T23:16:20.842Z,94463.03
2022-09-15T23:18:48.407Z,94474.28
2022-09-15T23:21:15.095Z,94467.63
2022-09-15T23:23:44.320Z,94479.81
2022-09-15T23:26:12.538Z,94473.88
2022-09-15T23:28:39.757Z,94476.03
2022-09-15T23:31:06.820Z,94471.72
2022-09-15T23:33:33.694Z,94474.75
2022-09-15T23:36:05.342Z,94470.41
2022-09-15T23:38:36.170Z,94479.44
2022-09-15T23:41:02.776Z,94462.63
2022-09-15T23:43:29.419Z,94471.47
2022-09-15T23:45:56.017Z,94466.44
2022-09-15T23:48:23.393Z,94465.25
2022-09-15T23:50:50.120Z,94468.19
2022-09-15T23:53:16.922Z,94465.94
2022-09-15T23:55:44.041Z,94464.38
2022-09-15T23:58:11.126Z,94458.38
